sensor_id;sensor_type;location;lat;lon;timestamp;pressure;altitude;pressure_sealevel;temperature;humidity
9421;BME280;4749;51.398;5.466;2023-06-10T00:02:22;101147.56;;;25.23;72.42
9421;BME280;4749;51.398;5.466;2023-06-10T00:04:49;101143.28;;;25.19;72.75
9421;BME280;4749;51.398;5.466;2023-06-10T00:07:16;101143.59;;;25.13;73.42
9421;BME280;4749;51.398;5.466;2023-06-10T00:09:44;101138.31;;;25.12;73.96
9421;BME280;4749;51.398;5.466;2023-06-10T00:12:11;101142.13;;;25.08;74.26
9421;BME280;4749;51.398;5.466;2023-06-10T00:14:39;101143.16;;;25.05;75.04
9421;BME280;4749;51.398;5.466;2023-06-10T00:17:07;101140.78;;;24.99;75.82
9421;BME280;4749;51.398;5.466;2023-06-10T00:19:37;101145.34;;;24.97;76.29
9421;BME280;4749;51.398;5.466;2023-06-10T00:22:09;101148.19;;;24.94;76.83
9421;BME280;4749;51.398;5.466;2023-06-10T00:24:39;101147.63;;;24.87;77.60
9421;BME280;4749;51.398;5.466;2023-06-10T00:27:06;101143.47;;;24.82;78.24
9421;BME280;4749;51.398;5.466;2023-06-10T00:29:34;101141.88;;;24.78;79.10
9421;BME280;4749;51.398;5.466;2023-06-10T00:32:02;101141.25;;;24.73;79.76
9421;BME280;4749;51.398;5.466;2023-06-10T00:34:29;101152.25;;;24.68;80.22
9421;BME280;4749;51.398;5.466;2023-06-10T00:36:56;101145.28;;;24.64;80.87
9421;BME280;4749;51.398;5.466;2023-06-10T00:39:23;101151.69;;;24.61;81.42
9421;BME280;4749;51.398;5.466;2023-06-10T00:41:50;101149.25;;;24.57;81.99
9421;BME280;4749;51.398;5.466;2023-06-10T00:44:17;101149.31;;;24.55;82.55
9421;BME280;4749;51.398;5.466;2023-06-10T00:46:45;101149.38;;;24.54;82.62
9421;BME280;4749;51.398;5.466;2023-06-10T00:49:12;101145.91;;;24.52;83.27
9421;BME280;4749;51.398;5.466;2023-06-10T00:51:40;101143.38;;;24.49;83.54
9421;BME280;4749;51.398;5.466;2023-06-10T00:54:07;101154.25;;;24.46;84.16
9421;BME280;4749;51.398;5.466;2023-06-10T00:56:35;101148.09;;;24.43;84.67
9421;BME280;4749;51.398;5.466;2023-06-10T00:59:03;101143.75;;;24.41;85.01
9421;BME280;4749;51.398;5.466;2023-06-10T01:01:30;101142.91;;;24.40;85.19
9421;BME280;4749;51.398;5.466;2023-06-10T01:03:59;101141.22;;;24.38;85.52
9421;BME280;4749;51.398;5.466;2023-06-10T01:06:36;101150.31;;;24.35;86.21
9421;BME280;4749;51.398;5.466;2023-06-10T01:09:22;101146.00;;;24.31;86.51
9421;BME280;4749;51.398;5.466;2023-06-10T01:14:39;101142.00;;;24.21;86.89
9421;BME280;4749;51.398;5.466;2023-06-10T01:17:12;101147.63;;;24.17;87.19
9421;BME280;4749;51.398;5.466;2023-06-10T01:19:44;101148.78;;;24.11;87.49
9421;BME280;4749;51.398;5.466;2023-06-10T01:22:11;101142.84;;;24.04;87.74
9421;BME280;4749;51.398;5.466;2023-06-10T01:24:42;101141.44;;;23.97;88.25
9421;BME280;4749;51.398;5.466;2023-06-10T01:27:14;101147.09;;;23.91;89.08
9421;BME280;4749;51.398;5.466;2023-06-10T01:29:48;101142.16;;;23.82;89.60
9421;BME280;4749;51.398;5.466;2023-06-10T01:32:29;101142.69;;;23.71;90.34
9421;BME280;4749;51.398;5.466;2023-06-10T01:35:00;101143.81;;;23.66;90.39
9421;BME280;4749;51.398;5.466;2023-06-10T01:37:29;101146.78;;;23.59;90.82
9421;BME280;4749;51.398;5.466;2023-06-10T01:40:01;101149.59;;;23.56;91.96
9421;BME280;4749;51.398;5.466;2023-06-10T01:42:33;101152.63;;;23.49;92.21
9421;BME280;4749;51.398;5.466;2023-06-10T01:45:00;101149.34;;;23.42;92.58
9421;BME280;4749;51.398;5.466;2023-06-10T01:47:27;101151.34;;;23.37;93.27
9421;BME280;4749;51.398;5.466;2023-06-10T01:49:55;101150.78;;;23.30;94.48
9421;BME280;4749;51.398;5.466;2023-06-10T01:52:22;101152.88;;;23.24;94.96
9421;BME280;4749;51.398;5.466;2023-06-10T01:54:49;101146.84;;;23.19;95.48
9421;BME280;4749;51.398;5.466;2023-06-10T01:57:16;101146.19;;;23.14;96.17
9421;BME280;4749;51.398;5.466;2023-06-10T01:59:43;101153.56;;;23.09;96.71
9421;BME280;4749;51.398;5.466;2023-06-10T02:02:13;101155.56;;;23.03;97.83
9421;BME280;4749;51.398;5.466;2023-06-10T02:04:40;101153.09;;;22.99;97.97
9421;BME280;4749;51.398;5.466;2023-06-10T02:07:07;101158.63;;;22.94;98.71
9421;BME280;4749;51.398;5.466;2023-06-10T02:09:34;101156.19;;;22.90;98.89
9421;BME280;4749;51.398;5.466;2023-06-10T02:12:04;101159.03;;;22.85;99.98
9421;BME280;4749;51.398;5.466;2023-06-10T02:14:33;101159.16;;;22.82;100.00
9421;BME280;4749;51.398;5.466;2023-06-10T02:17:00;101152.38;;;22.73;100.00
9421;BME280;4749;51.398;5.466;2023-06-10T02:19:28;101154.31;;;22.70;100.00
9421;BME280;4749;51.398;5.466;2023-06-10T02:21:55;101156.31;;;22.65;100.00
9421;BME280;4749;51.398;5.466;2023-06-10T02:24:22;101158.25;;;22.61;100.00
9421;BME280;4749;51.398;5.466;2023-06-10T02:26:49;101158.53;;;22.55;100.00
9421;BME280;4749;51.398;5.466;2023-06-10T02:29:18;101160.53;;;22.50;100.00
9421;BME280;4749;51.398;5.466;2023-06-10T02:31:45;101167.91;;;22.45;100.00
9421;BME280;4749;51.398;5.466;2023-06-10T02:34:13;101160.03;;;22.40;100.00
9421;BME280;4749;51.398;5.466;2023-06-10T02:36:40;101168.25;;;22.36;100.00
9421;BME280;4749;51.398;5.466;2023-06-10T02:39:07;101169.38;;;22.30;100.00
9421;BME280;4749;51.398;5.466;2023-06-10T02:41:34;101175.84;;;22.25;100.00
9421;BME280;4749;51.398;5.466;2023-06-10T02:44:02;101172.44;;;22.21;100.00
9421;BME280;4749;51.398;5.466;2023-06-10T02:46:29;101169.00;;;22.17;100.00
9421;BME280;4749;51.398;5.466;2023-06-10T02:48:56;101170.94;;;22.14;100.00
9421;BME280;4749;51.398;5.466;2023-06-10T02:51:23;101177.34;;;22.10;100.00
9421;BME280;4749;51.398;5.466;2023-06-10T02:53:50;101168.59;;;22.05;100.00
9421;BME280;4749;51.398;5.466;2023-06-10T02:56:19;101167.84;;;22.01;100.00
9421;BME280;4749;51.398;5.466;2023-06-10T02:58:47;101170.72;;;21.97;100.00
9421;BME280;4749;51.398;5.466;2023-06-10T03:01:15;101169.94;;;21.93;100.00
9421;BME280;4749;51.398;5.466;2023-06-10T03:03:42;101166.53;;;21.89;100.00
9421;BME280;4749;51.398;5.466;2023-06-10T03:06:13;101171.06;;;21.87;100.00
9421;BME280;4749;51.398;5.466;2023-06-10T03:08:40;101171.22;;;21.83;100.00
9421;BME280;4749;51.398;5.466;2023-06-10T03:11:08;101162.47;;;21.79;100.00
9421;BME280;4749;51.398;5.466;2023-06-10T03:13:35;101173.25;;;21.78;100.00
9421;BME280;4749;51.398;5.466;2023-06-10T03:16:02;101172.41;;;21.76;100.00
9421;BME280;4749;51.398;5.466;2023-06-10T03:18:30;101172.53;;;21.73;100.00
9421;BME280;4749;51.398;5.466;2023-06-10T03:20:57;101163.63;;;21.72;100.00
9421;BME280;4749;51.398;5.466;2023-06-10T03:23:24;101175.28;;;21.71;100.00
9421;BME280;4749;51.398;5.466;2023-06-10T03:25:51;101176.19;;;21.70;100.00
9421;BME280;4749;51.398;5.466;2023-06-10T03:28:19;101185.19;;;21.68;100.00
9421;BME280;4749;51.398;5.466;2023-06-10T03:30:47;101177.31;;;21.64;100.00
9421;BME280;4749;51.398;5.466;2023-06-10T03:33:15;101182.72;;;21.63;100.00
9421;BME280;4749;51.398;5.466;2023-06-10T03:35:43;101183.66;;;21.62;100.00
9421;BME280;4749;51.398;5.466;2023-06-10T03:38:10;101185.47;;;21.60;100.00
9421;BME280;4749;51.398;5.466;2023-06-10T03:40:37;101191.84;;;21.57;100.00
9421;BME280;4749;51.398;5.466;2023-06-10T03:43:04;101188.28;;;21.57;100.00
9421;BME280;4749;51.398;5.466;2023-06-10T03:45:32;101191.03;;;21.55;100.00
9421;BME280;4749;51.398;5.466;2023-06-10T03:48:00;101193.63;;;21.57;100.00
9421;BME280;4749;51.398;5.466;2023-06-10T03:50:27;101198.97;;;21.57;100.00
9421;BME280;4749;51.398;5.466;2023-06-10T03:52:55;101203.47;;;21.56;100.00
9421;BME280;4749;51.398;5.466;2023-06-10T03:55:22;101194.44;;;21.59;100.00
9421;BME280;4749;51.398;5.466;2023-06-10T03:57:50;101198.84;;;21.60;100.00
9421;BME280;4749;51.398;5.466;2023-06-10T04:00:18;101202.38;;;21.62;100.00
9421;BME280;4749;51.398;5.466;2023-06-10T04:02:48;101202.38;;;21.62;100.00
9421;BME280;4749;51.398;5.466;2023-06-10T04:05:19;101198.75;;;21.63;100.00
9421;BME280;4749;51.398;5.466;2023-06-10T04:07:49;101196.91;;;21.65;100.00
9421;BME280;4749;51.398;5.466;2023-06-10T04:10:17;101202.13;;;21.68;100.00
9421;BME280;4749;51.398;5.466;2023-06-10T04:12:44;101196.69;;;21.71;100.00
9421;BME280;4749;51.398;5.466;2023-06-10T04:15:11;101200.97;;;21.75;100.00
9421;BME280;4749;51.398;5.466;2023-06-10T04:17:39;101201.31;;;21.89;100.00
9421;BME280;4749;51.398;5.466;2023-06-10T04:20:07;101201.59;;;22.05;100.00
9421;BME280;4749;51.398;5.466;2023-06-10T04:22:35;101199.16;;;22.23;100.00
9421;BME280;4749;51.398;5.466;2023-06-10T04:25:03;101214.59;;;22.38;100.00
9421;BME280;4749;51.398;5.466;2023-06-10T04:27:30;101210.53;;;22.50;100.00
9421;BME280;4749;51.398;5.466;2023-06-10T04:29:57;101218.09;;;22.62;100.00
9421;BME280;4749;51.398;5.466;2023-06-10T04:32:24;101215.84;;;22.73;100.00
9421;BME280;4749;51.398;5.466;2023-06-10T04:34:52;101213.56;;;22.84;100.00
9421;BME280;4749;51.398;5.466;2023-06-10T04:37:19;101224.69;;;22.97;100.00
9421;BME280;4749;51.398;5.466;2023-06-10T04:39:47;101221.59;;;23.06;100.00
9421;BME280;4749;51.398;5.466;2023-06-10T04:42:14;101222.22;;;23.13;100.00
9421;BME280;4749;51.398;5.466;2023-06-10T04:44:41;101213.81;;;23.20;100.00
9421;BME280;4749;51.398;5.466;2023-06-10T04:47:08;101220.66;;;23.27;100.00
9421;BME280;4749;51.398;5.466;2023-06-10T04:49:35;101218.44;;;23.37;100.00
9421;BME280;4749;51.398;5.466;2023-06-10T04:52:03;101220.84;;;23.43;100.00
9421;BME280;4749;51.398;5.466;2023-06-10T04:54:31;101221.59;;;23.47;100.00
9421;BME280;4749;51.398;5.466;2023-06-10T04:56:59;101221.28;;;23.53;100.00
9421;BME280;4749;51.398;5.466;2023-06-10T04:59:27;101224.72;;;23.56;100.00
9421;BME280;4749;51.398;5.466;2023-06-10T05:01:54;101223.72;;;23.59;100.00
9421;BME280;4749;51.398;5.466;2023-06-10T05:04:22;101224.34;;;23.66;100.00
9421;BME280;4749;51.398;5.466;2023-06-10T05:06:49;101225.81;;;23.73;100.00
9421;BME280;4749;51.398;5.466;2023-06-10T05:09:16;101236.31;;;23.77;100.00
9421;BME280;4749;51.398;5.466;2023-06-10T05:11:43;101234.22;;;23.84;100.00
9421;BME280;4749;51.398;5.466;2023-06-10T05:14:11;101225.91;;;23.90;100.00
9421;BME280;4749;51.398;5.466;2023-06-10T05:16:39;101226.59;;;23.94;100.00
9421;BME280;4749;51.398;5.466;2023-06-10T05:19:06;101231.69;;;24.00;100.00
9421;BME280;4749;51.398;5.466;2023-06-10T05:21:34;101227.00;;;24.05;100.00
9421;BME280;4749;51.398;5.466;2023-06-10T05:24:01;101225.03;;;24.08;100.00
9421;BME280;4749;51.398;5.466;2023-06-10T05:26:29;101228.38;;;24.13;100.00
9421;BME280;4749;51.398;5.466;2023-06-10T05:28:58;101226.19;;;24.22;100.00
9421;BME280;4749;51.398;5.466;2023-06-10T05:31:25;101229.66;;;24.24;100.00
9421;BME280;4749;51.398;5.466;2023-06-10T05:33:53;101223.44;;;24.23;100.00
9421;BME280;4749;51.398;5.466;2023-06-10T05:36:20;101232.19;;;24.27;100.00
9421;BME280;4749;51.398;5.466;2023-06-10T05:38:47;101227.56;;;24.30;100.00
9421;BME280;4749;51.398;5.466;2023-06-10T05:41:14;101228.16;;;24.37;100.00
9421;BME280;4749;51.398;5.466;2023-06-10T05:43:41;101225.09;;;24.45;100.00
9421;BME280;4749;51.398;5.466;2023-06-10T05:46:09;101236.31;;;24.53;100.00
9421;BME280;4749;51.398;5.466;2023-06-10T05:48:36;101235.16;;;24.58;100.00
9421;BME280;4749;51.398;5.466;2023-06-10T05:51:03;101231.31;;;24.64;100.00
9421;BME280;4749;51.398;5.466;2023-06-10T05:53:31;101241.66;;;24.71;100.00
9421;BME280;4749;51.398;5.466;2023-06-10T05:55:58;101233.22;;;24.79;100.00
9421;BME280;4749;51.398;5.466;2023-06-10T05:58:25;101234.56;;;24.88;100.00
9421;BME280;4749;51.398;5.466;2023-06-10T06:00:52;101239.47;;;24.97;100.00
9421;BME280;4749;51.398;5.466;2023-06-10T06:03:19;101237.38;;;25.04;100.00
9421;BME280;4749;51.398;5.466;2023-06-10T06:05:54;101245.13;;;25.10;100.00
9421;BME280;4749;51.398;5.466;2023-06-10T06:08:21;101243.78;;;25.18;100.00
9421;BME280;4749;51.398;5.466;2023-06-10T06:10:49;101239.75;;;25.27;100.00
9421;BME280;4749;51.398;5.466;2023-06-10T06:13:16;101241.00;;;25.37;100.00
9421;BME280;4749;51.398;5.466;2023-06-10T06:15:43;101247.56;;;25.49;100.00
9421;BME280;4749;51.398;5.466;2023-06-10T06:18:11;101248.81;;;25.59;100.00
9421;BME280;4749;51.398;5.466;2023-06-10T06:20:38;101251.78;;;25.70;99.58
9421;BME280;4749;51.398;5.466;2023-06-10T06:23:05;101254.09;;;25.78;98.00
9421;BME280;4749;51.398;5.466;2023-06-10T06:25:33;101249.25;;;25.85;96.87
9421;BME280;4749;51.398;5.466;2023-06-10T06:28:02;101253.44;;;25.90;95.30
9421;BME280;4749;51.398;5.466;2023-06-10T06:30:29;101253.09;;;25.96;94.60
9421;BME280;4749;51.398;5.466;2023-06-10T06:32:56;101253.53;;;26.04;94.18
9421;BME280;4749;51.398;5.466;2023-06-10T06:35:24;101255.38;;;26.20;93.74
9421;BME280;4749;51.398;5.466;2023-06-10T06:37:51;101253.75;;;26.33;92.63
9421;BME280;4749;51.398;5.466;2023-06-10T06:40:18;101262.31;;;26.41;91.70
9421;BME280;4749;51.398;5.466;2023-06-10T06:42:45;101254.03;;;26.44;92.39
9421;BME280;4749;51.398;5.466;2023-06-10T06:45:12;101257.16;;;26.52;92.33
9421;BME280;4749;51.398;5.466;2023-06-10T06:47:39;101270.19;;;26.60;92.07
9421;BME280;4749;51.398;5.466;2023-06-10T06:50:07;101269.88;;;26.66;91.50
9421;BME280;4749;51.398;5.466;2023-06-10T06:52:35;101269.56;;;26.71;90.61
9421;BME280;4749;51.398;5.466;2023-06-10T06:55:02;101269.38;;;26.74;89.54
9421;BME280;4749;51.398;5.466;2023-06-10T06:57:29;101274.44;;;26.80;89.00
9421;BME280;4749;51.398;5.466;2023-06-10T06:59:56;101274.94;;;26.86;89.15
9421;BME280;4749;51.398;5.466;2023-06-10T07:02:23;101266.50;;;26.92;88.96
9421;BME280;4749;51.398;5.466;2023-06-10T07:04:50;101275.09;;;26.99;87.87
9421;BME280;4749;51.398;5.466;2023-06-10T07:07:17;101271.28;;;27.03;86.86
9421;BME280;4749;51.398;5.466;2023-06-10T07:09:45;101268.41;;;27.06;86.53
9421;BME280;4749;51.398;5.466;2023-06-10T07:12:12;101277.00;;;27.13;86.13
9421;BME280;4749;51.398;5.466;2023-06-10T07:14:39;101275.59;;;27.21;84.93
9421;BME280;4749;51.398;5.466;2023-06-10T07:17:06;101280.16;;;27.35;84.48
9421;BME280;4749;51.398;5.466;2023-06-10T07:19:33;101283.16;;;27.45;83.27
9421;BME280;4749;51.398;5.466;2023-06-10T07:22:00;101279.22;;;27.51;82.69
9421;BME280;4749;51.398;5.466;2023-06-10T07:24:27;101282.13;;;27.62;82.03
9421;BME280;4749;51.398;5.466;2023-06-10T07:26:54;101285.25;;;27.70;80.25
9421;BME280;4749;51.398;5.466;2023-06-10T07:29:21;101280.44;;;27.75;79.53
9421;BME280;4749;51.398;5.466;2023-06-10T07:31:48;101285.34;;;27.83;79.06
9421;BME280;4749;51.398;5.466;2023-06-10T07:34:16;101281.19;;;27.91;78.27
9421;BME280;4749;51.398;5.466;2023-06-10T07:36:43;101287.19;;;27.96;77.77
9421;BME280;4749;51.398;5.466;2023-06-10T07:39:10;101285.75;;;28.05;77.26
9421;BME280;4749;51.398;5.466;2023-06-10T07:41:37;101285.91;;;28.16;76.05
9421;BME280;4749;51.398;5.466;2023-06-10T07:44:04;101297.03;;;28.26;74.73
9421;BME280;4749;51.398;5.466;2023-06-10T07:46:31;101294.03;;;28.30;74.38
9421;BME280;4749;51.398;5.466;2023-06-10T07:48:59;101287.19;;;28.39;73.91
9421;BME280;4749;51.398;5.466;2023-06-10T07:51:26;101294.50;;;28.51;72.63
9421;BME280;4749;51.398;5.466;2023-06-10T07:53:53;101288.66;;;28.57;71.93
9421;BME280;4749;51.398;5.466;2023-06-10T07:56:20;101294.44;;;28.66;71.12
9421;BME280;4749;51.398;5.466;2023-06-10T07:58:48;101291.34;;;28.72;70.14
9421;BME280;4749;51.398;5.466;2023-06-10T08:01:15;101291.59;;;28.81;69.90
9421;BME280;4749;51.398;5.466;2023-06-10T08:03:42;101293.91;;;28.87;69.45
9421;BME280;4749;51.398;5.466;2023-06-10T08:06:10;101294.56;;;28.91;68.34
9421;BME280;4749;51.398;5.466;2023-06-10T08:08:38;101296.00;;;28.97;67.58
9421;BME280;4749;51.398;5.466;2023-06-10T08:11:13;101284.69;;;29.04;67.14
9421;BME280;4749;51.398;5.466;2023-06-10T08:13:41;101298.78;;;29.09;66.03
9421;BME280;4749;51.398;5.466;2023-06-10T08:16:08;101291.31;;;29.13;65.57
9421;BME280;4749;51.398;5.466;2023-06-10T08:18:35;101283.63;;;29.20;65.15
9421;BME280;4749;51.398;5.466;2023-06-10T08:21:06;101286.69;;;29.28;65.25
9421;BME280;4749;51.398;5.466;2023-06-10T08:23:33;101296.00;;;29.36;64.56
9421;BME280;4749;51.398;5.466;2023-06-10T08:26:00;101297.22;;;29.45;64.10
9421;BME280;4749;51.398;5.466;2023-06-10T08:28:27;101298.56;;;29.52;63.46
9421;BME280;4749;51.398;5.466;2023-06-10T08:30:54;101295.50;;;29.57;62.65
9421;BME280;4749;51.398;5.466;2023-06-10T08:33:23;101294.22;;;29.62;62.43
9421;BME280;4749;51.398;5.466;2023-06-10T08:35:50;101287.28;;;29.71;62.25
9421;BME280;4749;51.398;5.466;2023-06-10T08:38:17;101293.78;;;29.81;62.12
9421;BME280;4749;51.398;5.466;2023-06-10T08:40:44;101288.47;;;29.92;61.62
9421;BME280;4749;51.398;5.466;2023-06-10T08:43:30;101296.91;;;30.00;60.93
9421;BME280;4749;51.398;5.466;2023-06-10T08:46:01;101297.47;;;30.06;60.50
9421;BME280;4749;51.398;5.466;2023-06-10T08:48:30;101298.78;;;30.13;60.50
9421;BME280;4749;51.398;5.466;2023-06-10T08:50:58;101288.38;;;30.19;60.08
9421;BME280;4749;51.398;5.466;2023-06-10T08:53:27;101295.19;;;30.25;59.51
9421;BME280;4749;51.398;5.466;2023-06-10T08:55:58;101302.13;;;30.29;59.08
9421;BME280;4749;51.398;5.466;2023-06-10T08:58:28;101294.72;;;30.31;59.07
9421;BME280;4749;51.398;5.466;2023-06-10T09:00:55;101302.31;;;30.39;58.65
9421;BME280;4749;51.398;5.466;2023-06-10T09:03:23;101293.50;;;30.48;58.20
9421;BME280;4749;51.398;5.466;2023-06-10T09:05:51;101297.50;;;30.55;57.99
9421;BME280;4749;51.398;5.466;2023-06-10T09:08:18;101292.69;;;30.59;57.59
9421;BME280;4749;51.398;5.466;2023-06-10T09:10:45;101292.25;;;30.65;57.44
9421;BME280;4749;51.398;5.466;2023-06-10T09:13:13;101299.09;;;30.70;57.09
9421;BME280;4749;51.398;5.466;2023-06-10T09:15:42;101293.31;;;30.75;57.23
9421;BME280;4749;51.398;5.466;2023-06-10T09:18:09;101289.41;;;30.79;57.13
9421;BME280;4749;51.398;5.466;2023-06-10T09:20:38;101291.53;;;30.87;56.69
9421;BME280;4749;51.398;5.466;2023-06-10T09:23:06;101292.78;;;30.94;56.29
9421;BME280;4749;51.398;5.466;2023-06-10T09:25:38;101296.63;;;31.02;56.07
9421;BME280;4749;51.398;5.466;2023-06-10T09:28:15;101296.06;;;31.10;56.13
9421;BME280;4749;51.398;5.466;2023-06-10T09:30:42;101293.00;;;31.15;55.70
9421;BME280;4749;51.398;5.466;2023-06-10T09:33:14;101288.19;;;31.18;55.08
9421;BME280;4749;51.398;5.466;2023-06-10T09:35:48;101286.78;;;31.25;55.10
9421;BME280;4749;51.398;5.466;2023-06-10T09:38:22;101292.47;;;31.33;54.82
9421;BME280;4749;51.398;5.466;2023-06-10T09:40:54;101288.31;;;31.41;54.49
9421;BME280;4749;51.398;5.466;2023-06-10T09:43:21;101294.25;;;31.46;54.17
9421;BME280;4749;51.398;5.466;2023-06-10T09:45:52;101293.16;;;31.48;53.45
9421;BME280;4749;51.398;5.466;2023-06-10T09:48:22;101285.13;;;31.47;53.50
9421;BME280;4749;51.398;5.466;2023-06-10T09:50:50;101288.44;;;31.50;53.51
9421;BME280;4749;51.398;5.466;2023-06-10T09:53:18;101276.47;;;31.53;53.03
9421;BME280;4749;51.398;5.466;2023-06-10T09:55:45;101281.53;;;31.57;53.06
9421;BME280;4749;51.398;5.466;2023-06-10T09:58:12;101276.63;;;31.62;52.82
9421;BME280;4749;51.398;5.466;2023-06-10T10:00:40;101279.47;;;31.72;52.80
9421;BME280;4749;51.398;5.466;2023-06-10T10:03:07;101275.63;;;31.75;52.00
9421;BME280;4749;51.398;5.466;2023-06-10T10:05:35;101274.91;;;31.73;51.80
9421;BME280;4749;51.398;5.466;2023-06-10T10:08:02;101281.84;;;31.77;51.64
9421;BME280;4749;51.398;5.466;2023-06-10T10:10:29;101277.03;;;31.80;51.42
9421;BME280;4749;51.398;5.466;2023-06-10T10:12:57;101281.38;;;31.83;51.51
9421;BME280;4749;51.398;5.466;2023-06-10T10:15:30;101270.13;;;31.87;50.96
9421;BME280;4749;51.398;5.466;2023-06-10T10:18:10;101272.22;;;31.95;50.70
9421;BME280;4749;51.398;5.466;2023-06-10T10:20:50;101268.13;;;32.01;50.60
9421;BME280;4749;51.398;5.466;2023-06-10T10:23:32;101274.56;;;32.11;50.52
9421;BME280;4749;51.398;5.466;2023-06-10T10:26:05;101270.63;;;32.15;50.14
9421;BME280;4749;51.398;5.466;2023-06-10T10:28:46;101266.03;;;32.15;50.05
9421;BME280;4749;51.398;5.466;2023-06-10T10:31:18;101270.34;;;32.18;49.96
9421;BME280;4749;51.398;5.466;2023-06-10T10:33:58;101273.94;;;32.30;49.89
9421;BME280;4749;51.398;5.466;2023-06-10T10:36:27;101278.78;;;32.37;49.59
9421;BME280;4749;51.398;5.466;2023-06-10T10:38:55;101267.50;;;32.42;49.36
9421;BME280;4749;51.398;5.466;2023-06-10T10:41:24;101269.00;;;32.46;49.35
9421;BME280;4749;51.398;5.466;2023-06-10T10:43:53;101256.13;;;32.48;49.04
9421;BME280;4749;51.398;5.466;2023-06-10T10:46:21;101262.16;;;32.52;49.10
9421;BME280;4749;51.398;5.466;2023-06-10T10:48:54;101260.78;;;32.57;48.57
9421;BME280;4749;51.398;5.466;2023-06-10T10:51:23;101258.81;;;32.59;48.60
9421;BME280;4749;51.398;5.466;2023-06-10T10:54:33;101257.16;;;32.68;48.48
9421;BME280;4749;51.398;5.466;2023-06-10T10:57:17;101251.06;;;32.75;48.32
9421;BME280;4749;51.398;5.466;2023-06-10T11:02:40;101253.28;;;32.93;48.28
9421;BME280;4749;51.398;5.466;2023-06-10T11:05:08;101249.31;;;32.97;48.29
9421;BME280;4749;51.398;5.466;2023-06-10T11:07:37;101249.75;;;33.02;48.15
9421;BME280;4749;51.398;5.466;2023-06-10T11:10:09;101250.47;;;33.04;47.88
9421;BME280;4749;51.398;5.466;2023-06-10T12:16:53;101218.53;;;34.49;42.39
9421;BME280;4749;51.398;5.466;2023-06-10T12:19:20;101211.34;;;34.58;42.43
9421;BME280;4749;51.398;5.466;2023-06-10T12:21:47;101212.50;;;34.65;42.34
9421;BME280;4749;51.398;5.466;2023-06-10T12:24:14;101209.78;;;34.75;42.06
9421;BME280;4749;51.398;5.466;2023-06-10T12:26:44;101203.84;;;34.89;42.14
9421;BME280;4749;51.398;5.466;2023-06-10T12:29:24;101207.03;;;35.04;42.04
9421;BME280;4749;51.398;5.466;2023-06-10T12:32:02;101216.09;;;35.14;41.59
9421;BME280;4749;51.398;5.466;2023-06-10T12:34:38;101207.78;;;35.15;41.55
9421;BME280;4749;51.398;5.466;2023-06-10T12:37:12;101206.44;;;35.19;41.62
9421;BME280;4749;51.398;5.466;2023-06-10T12:39:42;101194.22;;;35.23;41.52
9421;BME280;4749;51.398;5.466;2023-06-10T12:42:24;101206.28;;;35.21;40.89
9421;BME280;4749;51.398;5.466;2023-06-10T12:44:55;101204.03;;;35.16;40.65
9421;BME280;4749;51.398;5.466;2023-06-10T12:47:34;101213.94;;;35.17;40.78
9421;BME280;4749;51.398;5.466;2023-06-10T12:50:09;101210.03;;;35.20;40.38
9421;BME280;4749;51.398;5.466;2023-06-10T12:52:36;101211.63;;;35.22;40.33
9421;BME280;4749;51.398;5.466;2023-06-10T12:55:04;101204.72;;;35.28;40.11
9421;BME280;4749;51.398;5.466;2023-06-10T12:57:31;101206.84;;;35.34;40.08
9421;BME280;4749;51.398;5.466;2023-06-10T12:59:59;101208.03;;;35.41;39.76
9421;BME280;4749;51.398;5.466;2023-06-10T13:02:31;101200.53;;;35.43;39.75
9421;BME280;4749;51.398;5.466;2023-06-10T13:04:58;101201.94;;;35.47;39.64
9421;BME280;4749;51.398;5.466;2023-06-10T13:07:26;101199.94;;;35.49;39.62
9421;BME280;4749;51.398;5.466;2023-06-10T13:09:53;101189.41;;;35.54;39.85
9421;BME280;4749;51.398;5.466;2023-06-10T13:12:20;101184.03;;;35.63;39.70
9421;BME280;4749;51.398;5.466;2023-06-10T13:15:08;101195.66;;;35.74;39.74
9421;BME280;4749;51.398;5.466;2023-06-10T13:17:36;101188.00;;;35.78;39.40
9421;BME280;4749;51.398;5.466;2023-06-10T13:20:04;101193.59;;;35.86;39.55
9421;BME280;4749;51.398;5.466;2023-06-10T13:22:33;101194.31;;;35.88;39.55
9421;BME280;4749;51.398;5.466;2023-06-10T13:25:03;101180.19;;;35.93;39.03
9421;BME280;4749;51.398;5.466;2023-06-10T13:27:30;101189.72;;;35.89;38.92
9421;BME280;4749;51.398;5.466;2023-06-10T13:29:58;101178.19;;;35.85;39.01
9421;BME280;4749;51.398;5.466;2023-06-10T13:32:25;101181.63;;;35.87;39.23
9421;BME280;4749;51.398;5.466;2023-06-10T13:34:52;101184.50;;;35.95;38.92
9421;BME280;4749;51.398;5.466;2023-06-10T13:37:20;101178.88;;;35.97;38.51
9421;BME280;4749;51.398;5.466;2023-06-10T13:39:47;101174.19;;;36.07;38.58
9421;BME280;4749;51.398;5.466;2023-06-10T13:42:18;101174.78;;;36.28;38.54
9421;BME280;4749;51.398;5.466;2023-06-10T13:44:47;101166.06;;;36.43;38.19
9421;BME280;4749;51.398;5.466;2023-06-10T13:47:15;101156.22;;;36.50;38.25
9421;BME280;4749;51.398;5.466;2023-06-10T13:49:43;101157.06;;;36.50;37.80
9421;BME280;4749;51.398;5.466;2023-06-10T13:52:10;101164.03;;;36.45;37.95
9421;BME280;4749;51.398;5.466;2023-06-10T13:54:37;101157.91;;;36.33;37.67
9421;BME280;4749;51.398;5.466;2023-06-10T13:57:05;101157.06;;;36.32;37.72
9421;BME280;4749;51.398;5.466;2023-06-10T13:59:32;101150.91;;;36.21;37.87
9421;BME280;4749;51.398;5.466;2023-06-10T14:01:59;101142.25;;;36.25;37.86
9421;BME280;4749;51.398;5.466;2023-06-10T14:04:27;101149.28;;;36.28;37.81
9421;BME280;4749;51.398;5.466;2023-06-10T14:06:54;101148.28;;;36.29;37.63
9421;BME280;4749;51.398;5.466;2023-06-10T14:09:22;101146.22;;;36.31;37.74
9421;BME280;4749;51.398;5.466;2023-06-10T14:11:49;101137.44;;;36.37;37.58
9421;BME280;4749;51.398;5.466;2023-06-10T14:14:16;101147.16;;;36.49;37.58
9421;BME280;4749;51.398;5.466;2023-06-10T14:16:43;101141.69;;;36.49;37.66
9421;BME280;4749;51.398;5.466;2023-06-10T14:19:11;101147.09;;;36.31;37.68
9421;BME280;4749;51.398;5.466;2023-06-10T14:21:38;101156.28;;;35.95;37.91
9421;BME280;4749;51.398;5.466;2023-06-10T14:24:06;101149.25;;;35.55;38.11
9421;BME280;4749;51.398;5.466;2023-06-10T14:26:33;101144.16;;;35.23;38.10